createdAt,value
2023-02-05T00:02:54.771Z,16.60
2023-02-05T00:06:22.213Z,17.20
2023-02-05T00:09:49.592Z,15.80
2023-02-05T00:13:16.260Z,19.40
2023-02-05T00:16:43.614Z,21.20
2023-02-05T00:20:13.422Z,20.50
2023-02-05T00:23:41.360Z,24.10
2023-02-05T00:27:08.155Z,22.10
2023-02-05T00:30:41.688Z,23.10
2023-02-05T00:34:09.866Z,25.30
2023-02-05T00:37:37.929Z,19.40
2023-02-05T00:41:06.783Z,19.60
2023-02-05T00:44:34.613Z,22.10
2023-02-05T00:48:02.146Z,19.10
2023-02-05T00:51:29.111Z,22.90
2023-02-05T00:54:56.800Z,20.30
2023-02-05T00:58:24.005Z,19.60
2023-02-05T01:01:51.577Z,19.20
2023-02-05T01:05:22.869Z,22.50
2023-02-05T01:08:50.761Z,20.80
2023-02-05T01:12:18.296Z,17.10
2023-02-05T01:15:45.736Z,18.90
2023-02-05T01:19:16.697Z,18.00
2023-02-05T01:22:44.208Z,18.00
2023-02-05T01:26:11.092Z,19.40
2023-02-05T01:29:37.935Z,25.20
2023-02-05T01:33:05.224Z,24.20
2023-02-05T01:36:35.572Z,26.40
2023-02-05T01:40:03.810Z,22.20
2023-02-05T01:43:31.570Z,24.50
2023-02-05T01:47:02.849Z,28.30
2023-02-05T01:50:38.482Z,23.00
2023-02-05T01:54:07.309Z,26.50
2023-02-05T01:57:38.797Z,30.00
2023-02-05T02:01:06.430Z,31.00
2023-02-05T02:04:39.891Z,29.70
2023-02-05T02:08:07.924Z,31.80
2023-02-05T02:11:39.960Z,29.00
2023-02-05T02:15:11.866Z,27.90
2023-02-05T02:18:40.928Z,30.90
2023-02-05T02:22:28.389Z,28.80
2023-02-05T02:26:27.522Z,23.70
2023-02-05T02:29:59.990Z,27.00
2023-02-05T02:33:34.616Z,24.50
2023-02-05T02:37:08.687Z,20.20
2023-02-05T02:40:42.558Z,26.20
2023-02-05T02:44:16.671Z,19.50
2023-02-05T02:47:48.592Z,21.30
2023-02-05T02:51:21.119Z,23.40
2023-02-05T02:54:55.181Z,20.30
2023-02-05T02:58:26.766Z,24.30
2023-02-05T03:02:00.140Z,24.80
2023-02-05T03:05:29.474Z,20.10
2023-02-05T03:09:01.885Z,20.50
2023-02-05T03:12:29.676Z,22.40
2023-02-05T03:15:58.232Z,18.40
2023-02-05T03:19:28.826Z,18.70
2023-02-05T03:22:59.430Z,16.20
2023-02-05T03:26:29.389Z,17.90
2023-02-05T03:30:11.115Z,13.80
2023-02-05T03:33:48.531Z,15.20
2023-02-05T03:37:24.257Z,16.00
2023-02-05T03:40:57.267Z,18.90
2023-02-05T03:44:39.833Z,15.70
2023-02-05T03:48:23.956Z,13.80
2023-02-05T03:51:59.018Z,16.10
2023-02-05T03:55:32.057Z,16.40
2023-02-05T03:59:04.143Z,16.20
2023-02-05T04:02:31.881Z,16.00
2023-02-05T04:05:59.068Z,18.80
2023-02-05T04:09:28.604Z,19.60
2023-02-05T04:12:56.112Z,15.60
2023-02-05T04:16:25.925Z,19.70
2023-02-05T04:19:54.747Z,18.60
2023-02-05T04:23:22.308Z,18.60
2023-02-05T04:26:51.521Z,12.10
2023-02-05T04:30:19.070Z,17.00
2023-02-05T04:33:47.003Z,18.00
2023-02-05T04:37:14.983Z,17.30
2023-02-05T04:40:41.665Z,13.70
2023-02-05T04:44:08.322Z,19.30
2023-02-05T04:47:36.297Z,15.70
2023-02-05T04:51:06.771Z,18.50
2023-02-05T04:54:33.684Z,18.10
2023-02-05T04:58:01.620Z,18.90
2023-02-05T05:01:28.796Z,16.50
2023-02-05T05:04:55.984Z,18.90
2023-02-05T05:08:23.242Z,18.00
2023-02-05T05:11:49.989Z,19.50
2023-02-05T05:15:16.732Z,19.90
2023-02-05T05:18:44.660Z,21.20
2023-02-05T05:22:12.366Z,16.90
2023-02-05T05:25:46.836Z,20.50
2023-02-05T05:29:14.373Z,22.30
2023-02-05T05:32:41.982Z,17.00
2023-02-05T05:36:10.822Z,14.70
2023-02-05T05:39:55.715Z,17.30
2023-02-05T05:43:41.676Z,18.70
2023-02-05T05:47:08.799Z,23.30
2023-02-05T05:50:35.372Z,22.10
2023-02-05T05:54:02.404Z,19.80
2023-02-05T05:57:29.222Z,26.40
2023-02-05T06:00:57.742Z,23.10
2023-02-05T06:04:25.578Z,23.70
2023-02-05T06:07:52.222Z,22.40
2023-02-05T06:11:18.980Z,26.60
2023-02-05T06:14:45.596Z,23.80
2023-02-05T06:18:12.580Z,22.50
2023-02-05T06:21:39.526Z,23.10
2023-02-05T06:25:06.843Z,21.40
2023-02-05T06:28:33.568Z,26.00
2023-02-05T06:32:00.398Z,24.10
2023-02-05T06:35:27.353Z,23.40
2023-02-05T06:38:54.037Z,25.30
2023-02-05T06:42:20.758Z,26.80
2023-02-05T06:45:47.354Z,33.90
2023-02-05T06:49:13.981Z,32.70
2023-02-05T06:52:40.884Z,30.70
2023-02-05T06:56:09.604Z,30.50
2023-02-05T06:59:36.107Z,28.00
2023-02-05T07:03:03.238Z,29.10
2023-02-05T07:06:30.350Z,28.30
2023-02-05T07:09:57.246Z,30.80
2023-02-05T07:13:24.356Z,26.60
2023-02-05T07:16:51.937Z,26.70
2023-02-05T07:20:19.850Z,28.00
2023-02-05T07:23:46.901Z,30.40
2023-02-05T07:27:13.881Z,29.20
2023-02-05T07:30:40.666Z,25.90
2023-02-05T07:34:07.130Z,27.60
2023-02-05T07:37:34.092Z,31.70
2023-02-05T07:41:04.551Z,32.30
2023-02-05T07:44:32.236Z,39.00
2023-02-05T07:47:59.157Z,53.00
2023-02-05T07:51:27.216Z,50.20
2023-02-05T07:54:54.924Z,45.40
2023-02-05T07:58:22.194Z,53.60
2023-02-05T08:01:49.320Z,47.50
2023-02-05T08:05:16.170Z,54.10
2023-02-05T08:08:45.292Z,53.40
2023-02-05T08:12:12.799Z,45.10
2023-02-05T08:15:41.062Z,47.20
2023-02-05T08:19:08.044Z,44.70
2023-02-05T08:22:35.662Z,58.00
2023-02-05T08:26:03.190Z,71.40
2023-02-05T08:29:33.036Z,65.70
2023-02-05T08:33:00.061Z,77.80
2023-02-05T08:36:27.459Z,75.20
2023-02-05T08:39:54.848Z,68.30
2023-02-05T08:43:23.257Z,61.20
2023-02-05T08:46:50.611Z,35.60
2023-02-05T08:50:17.292Z,39.10
2023-02-05T08:53:44.508Z,26.60
2023-02-05T08:57:12.030Z,29.70
2023-02-05T09:00:40.342Z,28.90
2023-02-05T09:04:07.989Z,32.60
2023-02-05T09:07:34.953Z,33.20
2023-02-05T09:11:01.763Z,36.10
2023-02-05T09:14:28.901Z,25.00
2023-02-05T09:17:55.855Z,25.60
2023-02-05T09:21:22.808Z,29.50
2023-02-05T09:24:51.032Z,39.10
2023-02-05T09:28:18.255Z,38.60
2023-02-05T09:31:47.607Z,76.80
2023-02-05T09:35:16.225Z,76.40
2023-02-05T09:38:45.826Z,57.00
2023-02-05T09:42:21.825Z,39.70
2023-02-05T09:45:59.335Z,34.50
2023-02-05T09:49:32.738Z,37.10
2023-02-05T09:53:03.965Z,40.40
2023-02-05T09:56:33.317Z,34.00
2023-02-05T10:00:01.615Z,37.60
2023-02-05T10:03:33.414Z,37.20
2023-02-05T10:07:21.977Z,29.80
2023-02-05T10:10:51.693Z,29.40
2023-02-05T10:14:28.747Z,38.40
2023-02-05T10:18:07.791Z,42.20
2023-02-05T10:21:50.484Z,38.90
2023-02-05T10:25:50.403Z,33.40
2023-02-05T10:29:29.500Z,29.50
2023-02-05T10:33:00.411Z,33.70
2023-02-05T10:36:28.846Z,20.90
2023-02-05T10:40:00.463Z,21.60
2023-02-05T10:43:32.641Z,18.90
2023-02-05T10:47:07.100Z,23.90
2023-02-05T10:50:46.187Z,22.90
2023-02-05T10:54:22.781Z,22.70
2023-02-05T10:57:50.051Z,27.20
2023-02-05T11:01:19.373Z,39.40
2023-02-05T11:04:51.309Z,37.40
2023-02-05T11:08:36.276Z,60.10
2023-02-05T11:12:05.518Z,44.00
2023-02-05T11:15:34.341Z,35.50
2023-02-05T11:19:02.603Z,53.20
2023-02-05T11:22:31.864Z,38.10
2023-02-05T11:26:00.614Z,22.80
2023-02-05T11:29:27.921Z,27.20
2023-02-05T11:32:56.176Z,28.30
2023-02-05T11:36:26.290Z,23.30
2023-02-05T11:39:55.338Z,24.20
2023-02-05T11:43:28.242Z,22.80
2023-02-05T11:46:57.245Z,20.50
2023-02-05T11:50:29.274Z,16.70
2023-02-05T11:54:00.814Z,18.30
2023-02-05T11:57:41.978Z,13.30
2023-02-05T12:01:25.864Z,13.70
2023-02-05T12:04:56.768Z,16.20
2023-02-05T12:08:33.691Z,18.00
2023-02-05T12:12:11.464Z,10.80
2023-02-05T12:15:47.230Z,6.30
2023-02-05T12:19:21.692Z,8.30
2023-02-05T12:23:07.937Z,10.20
2023-02-05T12:26:38.853Z,9.10
2023-02-05T12:30:25.011Z,11.20
2023-02-05T12:34:24.644Z,11.40
2023-02-05T12:38:00.272Z,11.00
2023-02-05T12:41:38.530Z,16.10
2023-02-05T12:45:26.384Z,15.80
2023-02-05T12:49:20.647Z,11.40
2023-02-05T12:53:03.336Z,11.30
2023-02-05T12:56:45.187Z,17.30
2023-02-05T13:00:24.418Z,12.30
2023-02-05T13:03:56.637Z,16.60
2023-02-05T13:07:35.367Z,12.60
2023-02-05T13:11:15.636Z,13.70
2023-02-05T13:14:51.192Z,13.70
2023-02-05T13:18:24.409Z,13.40
2023-02-05T13:22:12.309Z,15.80
2023-02-05T13:26:00.972Z,20.80
2023-02-05T13:29:34.350Z,23.50
2023-02-05T13:48:05.306Z,37.00
2023-02-05T13:52:00.671Z,23.10
2023-02-05T13:55:49.559Z,28.40
2023-02-05T13:59:27.183Z,24.30
2023-02-05T14:03:07.233Z,27.90
2023-02-05T14:06:37.809Z,35.30
2023-02-05T14:10:28.006Z,22.20
2023-02-05T14:14:36.811Z,19.80
2023-02-05T14:18:06.936Z,53.40
2023-02-05T14:22:01.740Z,68.20
2023-02-05T14:26:05.155Z,35.60
2023-02-05T14:29:45.176Z,28.60
2023-02-05T14:33:30.127Z,28.20
2023-02-05T14:36:58.346Z,28.90
2023-02-05T14:40:30.099Z,34.30
2023-02-05T14:44:01.551Z,40.20
2023-02-05T14:47:33.219Z,37.00
2023-02-05T14:51:20.703Z,40.40
2023-02-05T14:54:51.763Z,36.10
2023-02-05T14:58:32.068Z,32.00
2023-02-05T15:02:00.245Z,33.30
2023-02-05T15:05:33.677Z,36.50
2023-02-05T15:09:06.418Z,40.60
2023-02-05T15:12:55.969Z,39.90
2023-02-05T15:16:27.064Z,34.40
2023-02-05T15:19:59.986Z,44.80
2023-02-05T15:23:36.823Z,46.70
2023-02-05T15:27:08.584Z,39.20
2023-02-05T15:30:50.145Z,40.80
2023-02-05T15:34:35.363Z,48.20
2023-02-05T15:38:10.472Z,50.60
2023-02-05T15:41:39.078Z,46.20
2023-02-05T15:48:44.513Z,58.20
2023-02-05T15:52:17.451Z,60.80
2023-02-05T15:55:44.629Z,76.80
2023-02-05T15:59:18.656Z,75.40
2023-02-05T16:02:57.981Z,71.10
2023-02-05T16:06:27.562Z,70.70
2023-02-05T16:09:57.581Z,63.30
2023-02-05T16:13:25.306Z,67.50
2023-02-05T16:17:02.590Z,65.20
2023-02-05T16:20:34.007Z,64.40
2023-02-05T16:24:04.011Z,69.20
2023-02-05T16:27:41.066Z,63.60
2023-02-05T16:31:09.514Z,60.60
2023-02-05T16:34:40.696Z,61.70
2023-02-05T16:38:14.911Z,62.40
2023-02-05T16:41:45.394Z,61.00
2023-02-05T16:45:29.352Z,56.80
2023-02-05T16:49:01.994Z,73.00
2023-02-05T16:52:34.662Z,75.10
2023-02-05T16:56:12.939Z,85.20
2023-02-05T16:59:54.070Z,79.20
2023-02-05T17:03:21.767Z,88.60
2023-02-05T17:06:49.534Z,87.20
2023-02-05T17:10:24.732Z,87.50
2023-02-05T17:13:51.905Z,79.60
2023-02-05T17:17:22.412Z,103.20
2023-02-05T17:20:50.130Z,94.80
2023-02-05T17:24:19.268Z,87.80
2023-02-05T17:27:45.814Z,103.90
2023-02-05T17:31:15.656Z,102.00
2023-02-05T17:34:45.279Z,101.30
2023-02-05T17:38:11.896Z,98.80
2023-02-05T17:41:59.456Z,102.70
2023-02-05T17:45:29.560Z,104.10
2023-02-05T17:49:00.469Z,106.10
2023-02-05T17:52:28.636Z,107.10
2023-02-05T17:55:57.120Z,108.50
2023-02-05T17:59:27.453Z,118.50
2023-02-05T18:03:01.581Z,107.40
2023-02-05T18:06:29.138Z,110.10
2023-02-05T18:10:00.218Z,99.40
2023-02-05T18:13:29.527Z,101.50
2023-02-05T18:16:57.582Z,128.70
2023-02-05T18:20:27.819Z,143.30
2023-02-05T18:23:56.063Z,169.40
2023-02-05T18:27:24.409Z,184.40
2023-02-05T18:31:03.719Z,156.90
2023-02-05T18:34:31.932Z,166.20
2023-02-05T18:38:00.640Z,159.70
2023-02-05T18:41:31.222Z,169.40
2023-02-05T18:44:59.576Z,155.50
2023-02-05T18:48:29.156Z,196.00
2023-02-05T18:51:59.980Z,158.50
2023-02-05T18:55:29.953Z,154.00
2023-02-05T18:59:06.127Z,153.90
2023-02-05T19:02:36.056Z,156.90
2023-02-05T19:06:08.985Z,146.30
2023-02-05T19:09:40.491Z,136.30
2023-02-05T19:13:09.761Z,118.80
2023-02-05T19:16:37.580Z,111.00
2023-02-05T19:20:11.043Z,103.30
2023-02-05T19:23:43.565Z,101.00
2023-02-05T19:27:14.758Z,113.10
2023-02-05T19:30:43.140Z,112.30
2023-02-05T19:34:12.574Z,104.20
2023-02-05T19:37:43.749Z,107.00
2023-02-05T19:41:14.474Z,104.00
2023-02-05T19:44:43.646Z,94.30
2023-02-05T19:48:12.489Z,94.70
2023-02-05T19:51:43.949Z,95.90
2023-02-05T19:55:16.209Z,89.20
2023-02-05T19:58:49.419Z,80.50
2023-02-05T20:02:20.032Z,88.60
2023-02-05T20:05:53.144Z,91.30
2023-02-05T20:09:22.029Z,88.60
2023-02-05T20:12:59.956Z,85.90
2023-02-05T20:16:27.296Z,88.30
2023-02-05T20:20:02.538Z,87.90
2023-02-05T20:23:39.376Z,79.30
2023-02-05T20:27:08.182Z,92.30
2023-02-05T20:30:55.232Z,102.10
2023-02-05T20:34:26.202Z,94.70
2023-02-05T20:37:54.553Z,93.10
2023-02-05T20:41:23.704Z,97.00
2023-02-05T20:44:53.827Z,98.60
2023-02-05T20:48:21.798Z,97.40
2023-02-05T20:51:49.281Z,93.30
2023-02-05T20:55:17.905Z,100.00
2023-02-05T20:58:51.241Z,92.60
2023-02-05T21:02:24.517Z,101.30
2023-02-05T21:05:53.686Z,110.30
2023-02-05T21:09:23.990Z,97.20
2023-02-05T21:12:54.068Z,99.50
2023-02-05T21:16:24.352Z,96.10
2023-02-05T21:19:52.427Z,99.40
2023-02-05T21:23:22.195Z,88.60
2023-02-05T21:26:54.168Z,91.30
2023-02-05T21:30:27.797Z,107.40
2023-02-05T21:34:01.103Z,114.20
2023-02-05T21:37:30.763Z,111.60
2023-02-05T21:40:59.182Z,131.60
2023-02-05T21:44:26.678Z,154.40
2023-02-05T21:47:54.139Z,148.80
2023-02-05T21:51:23.503Z,154.10
2023-02-05T21:54:51.809Z,157.70
2023-02-05T21:58:19.522Z,171.20
2023-02-05T22:01:47.627Z,317.70
2023-02-05T22:05:16.368Z,339.10
2023-02-05T22:08:48.952Z,317.70
2023-02-05T22:12:16.171Z,287.20
2023-02-05T22:15:44.686Z,242.70
2023-02-05T22:19:13.955Z,219.80
2023-02-05T22:22:42.264Z,229.20
2023-02-05T22:26:12.971Z,219.10
2023-02-05T22:29:41.360Z,214.70
2023-02-05T22:33:12.417Z,210.90
2023-02-05T22:36:42.187Z,219.70
2023-02-05T22:40:11.351Z,205.30
2023-02-05T22:43:43.494Z,208.10
2023-02-05T22:47:16.517Z,203.10
2023-02-05T22:50:48.731Z,207.60
2023-02-05T22:54:16.837Z,203.40
2023-02-05T22:57:44.888Z,207.90
2023-02-05T23:01:14.225Z,224.70
2023-02-05T23:04:41.375Z,203.00
2023-02-05T23:08:12.051Z,224.00
2023-02-05T23:11:42.130Z,292.70
2023-02-05T23:15:12.520Z,274.30
2023-02-05T23:18:42.273Z,224.80
2023-02-05T23:22:10.755Z,242.20
2023-02-05T23:25:41.875Z,235.60
2023-02-05T23:29:19.586Z,198.60
2023-02-05T23:33:01.589Z,201.20
2023-02-05T23:36:30.894Z,196.30
2023-02-05T23:39:59.556Z,201.30
2023-02-05T23:43:27.629Z,202.20
2023-02-05T23:46:58.269Z,212.50
2023-02-05T23:50:28.774Z,225.00
2023-02-05T23:53:57.913Z,238.00
2023-02-05T23:57:29.468Z,231.10
